createdAt,value
2023-11-07T00:00:08.752Z,17.13
2023-11-07T00:02:36.746Z,15.88
2023-11-07T00:05:05.254Z,12.77
2023-11-07T00:07:32.905Z,16.67
2023-11-07T00:10:01.851Z,16.30
2023-11-07T00:12:29.572Z,13.73
2023-11-07T00:14:57.604Z,14.00
2023-11-07T00:17:25.222Z,17.00
2023-11-07T00:19:52.914Z,14.70
2023-11-07T00:22:20.471Z,22.70
2023-11-07T00:24:48.352Z,17.48
2023-11-07T00:27:19.582Z,15.07
2023-11-07T00:29:48.112Z,14.60
2023-11-07T00:32:15.782Z,14.80
2023-11-07T00:34:43.455Z,16.00
2023-11-07T00:37:11.133Z,13.85
2023-11-07T00:39:38.773Z,16.83
2023-11-07T00:42:06.937Z,15.70
2023-11-07T00:44:35.851Z,14.18
2023-11-07T00:47:04.134Z,15.13
2023-11-07T00:49:31.728Z,20.75
2023-11-07T00:52:00.733Z,12.27
2023-11-07T00:54:28.496Z,16.23
2023-11-07T00:56:56.206Z,15.98
2023-11-07T00:59:23.941Z,17.30
2023-11-07T01:01:52.924Z,20.00
2023-11-07T01:04:20.721Z,13.68
2023-11-07T01:06:48.535Z,12.70
2023-11-07T01:09:17.703Z,17.15
2023-11-07T01:11:45.265Z,14.90
2023-11-07T01:14:12.894Z,16.60
2023-11-07T01:16:40.448Z,17.25
2023-11-07T01:19:11.154Z,20.63
2023-11-07T01:21:38.949Z,15.93
2023-11-07T01:24:07.594Z,17.17
2023-11-07T01:26:35.263Z,14.27
2023-11-07T01:29:02.971Z,14.65
2023-11-07T01:31:30.868Z,19.15
2023-11-07T01:33:58.657Z,19.52
2023-11-07T01:36:27.705Z,12.87
2023-11-07T01:38:55.707Z,18.15
2023-11-07T01:41:23.521Z,16.17
2023-11-07T01:43:51.161Z,13.23
2023-11-07T01:46:18.909Z,15.40
2023-11-07T01:48:46.798Z,17.37
2023-11-07T01:51:15.461Z,12.57
2023-11-07T01:53:44.817Z,15.25
2023-11-07T01:56:12.936Z,15.80
2023-11-07T01:58:40.922Z,13.60
2023-11-07T02:01:08.917Z,14.23
2023-11-07T02:03:38.736Z,19.85
2023-11-07T02:06:08.249Z,17.15
2023-11-07T02:08:36.303Z,16.75
2023-11-07T02:11:06.013Z,22.73
2023-11-07T02:13:33.726Z,13.47
2023-11-07T02:16:01.321Z,13.65
2023-11-07T02:18:29.253Z,15.15
2023-11-07T02:20:57.512Z,13.27
2023-11-07T02:23:29.810Z,16.85
2023-11-07T02:25:58.253Z,19.13
2023-11-07T02:28:26.116Z,18.15
2023-11-07T02:30:53.857Z,15.55
2023-11-07T02:33:22.712Z,14.70
2023-11-07T02:35:50.685Z,20.83
2023-11-07T02:38:20.740Z,17.30
2023-11-07T02:40:50.208Z,13.90
2023-11-07T02:43:17.864Z,14.98
2023-11-07T02:45:46.141Z,14.13
2023-11-07T02:48:14.013Z,14.40
2023-11-07T02:50:41.758Z,16.00
2023-11-07T02:53:09.368Z,15.20
2023-11-07T02:55:37.051Z,14.40
2023-11-07T02:58:06.478Z,13.70
2023-11-07T03:00:34.316Z,14.45
2023-11-07T03:03:02.120Z,12.50
2023-11-07T03:05:30.038Z,15.52
2023-11-07T03:07:59.671Z,19.08
2023-11-07T03:10:27.740Z,17.55
2023-11-07T03:12:55.380Z,16.48
2023-11-07T03:15:24.964Z,14.50
2023-11-07T03:17:52.666Z,14.70
2023-11-07T03:20:21.492Z,14.88
2023-11-07T03:22:50.043Z,11.70
2023-11-07T03:25:17.861Z,12.63
2023-11-07T03:27:45.537Z,14.40
2023-11-07T03:30:13.994Z,17.30
2023-11-07T03:32:45.370Z,13.27
2023-11-07T03:35:14.220Z,13.48
2023-11-07T03:37:41.783Z,17.25
2023-11-07T03:40:10.269Z,11.07
2023-11-07T03:42:37.877Z,17.35
2023-11-07T03:45:06.504Z,13.68
2023-11-07T03:47:36.235Z,13.77
2023-11-07T03:50:05.617Z,17.48
2023-11-07T03:52:33.265Z,16.63
2023-11-07T03:55:00.850Z,12.48
2023-11-07T03:57:28.425Z,12.50
2023-11-07T03:59:56.255Z,15.75
2023-11-07T04:02:24.523Z,13.15
2023-11-07T04:04:52.062Z,16.53
2023-11-07T04:07:21.011Z,12.68
2023-11-07T04:09:48.654Z,10.70
2023-11-07T04:12:16.769Z,14.63
2023-11-07T04:14:46.305Z,15.55
2023-11-07T04:17:16.530Z,18.03
2023-11-07T04:19:44.545Z,11.27
2023-11-07T04:22:12.153Z,13.98
2023-11-07T04:24:41.469Z,16.08
2023-11-07T04:27:09.809Z,16.80
2023-11-07T04:29:37.855Z,10.70
2023-11-07T04:32:06.422Z,15.23
2023-11-07T04:34:35.566Z,13.90
2023-11-07T04:37:03.142Z,17.85
2023-11-07T04:39:30.804Z,13.25
2023-11-07T04:42:00.016Z,13.00
2023-11-07T04:44:28.043Z,14.13
2023-11-07T04:46:55.704Z,12.93
2023-11-07T04:49:23.416Z,17.65
2023-11-07T04:51:51.167Z,16.25
2023-11-07T04:54:18.729Z,13.53
2023-11-07T04:56:46.433Z,12.05
2023-11-07T04:59:15.394Z,13.55
2023-11-07T05:01:46.272Z,13.85
2023-11-07T05:04:14.307Z,14.45
2023-11-07T05:06:42.357Z,12.97
2023-11-07T05:09:13.454Z,12.32
2023-11-07T05:11:41.461Z,9.95
2023-11-07T05:14:09.990Z,17.00
2023-11-07T05:16:39.876Z,13.48
2023-11-07T05:19:09.150Z,14.37
2023-11-07T05:21:37.345Z,16.50
2023-11-07T05:24:06.065Z,14.82
2023-11-07T05:26:33.879Z,15.88
2023-11-07T05:29:01.961Z,14.20
2023-11-07T05:31:31.989Z,15.67
2023-11-07T05:34:01.703Z,15.02
2023-11-07T05:36:29.374Z,17.77
2023-11-07T05:38:57.134Z,16.10
2023-11-07T05:41:26.188Z,19.30
2023-11-07T05:43:54.263Z,16.40
2023-11-07T05:46:22.907Z,16.08
2023-11-07T05:48:52.524Z,15.60
2023-11-07T05:51:24.330Z,14.57
2023-11-07T05:53:52.365Z,17.17
2023-11-07T05:56:20.519Z,17.20
2023-11-07T05:58:49.683Z,16.95
2023-11-07T06:01:17.487Z,28.35
2023-11-07T06:03:45.182Z,16.30
2023-11-07T06:06:12.988Z,18.43
2023-11-07T06:08:42.111Z,17.58
2023-11-07T06:11:09.755Z,18.73
2023-11-07T06:13:37.350Z,20.00
2023-11-07T06:16:06.262Z,15.55
2023-11-07T06:18:34.673Z,14.50
2023-11-07T06:21:02.411Z,20.58
2023-11-07T06:23:30.049Z,14.40
2023-11-07T06:25:59.083Z,19.40
2023-11-07T06:28:29.603Z,20.38
2023-11-07T06:30:57.198Z,23.07
2023-11-07T06:33:24.840Z,17.10
2023-11-07T06:35:52.614Z,16.10
2023-11-07T06:38:22.807Z,16.90
2023-11-07T06:40:50.474Z,16.52
2023-11-07T06:43:20.614Z,15.97
2023-11-07T06:45:48.167Z,18.65
2023-11-07T06:48:16.086Z,17.58
2023-11-07T06:50:43.781Z,15.93
2023-11-07T06:53:12.157Z,15.65
2023-11-07T06:55:39.724Z,20.53
2023-11-07T06:58:09.108Z,16.13
2023-11-07T07:00:39.902Z,21.30
2023-11-07T07:03:07.979Z,23.17
2023-11-07T07:05:35.806Z,15.43
2023-11-07T07:08:04.672Z,15.63
2023-11-07T07:10:33.256Z,15.90
2023-11-07T07:13:00.898Z,18.13
2023-11-07T07:15:28.460Z,15.52
2023-11-07T07:17:57.596Z,18.02
2023-11-07T07:20:25.362Z,18.30
2023-11-07T07:22:54.620Z,20.58
2023-11-07T07:25:27.774Z,19.25
2023-11-07T07:27:56.607Z,16.75
2023-11-07T07:30:27.271Z,17.80
2023-11-07T07:32:55.333Z,18.13
2023-11-07T07:35:24.461Z,16.13
2023-11-07T07:37:53.195Z,17.17
2023-11-07T07:40:25.524Z,15.73
2023-11-07T07:42:54.236Z,16.83
2023-11-07T07:45:24.960Z,18.10
2023-11-07T07:47:52.745Z,17.10
2023-11-07T07:50:20.706Z,18.98
2023-11-07T07:52:55.664Z,15.75
2023-11-07T07:55:32.374Z,15.75
2023-11-07T07:58:03.657Z,14.87
2023-11-07T08:00:33.162Z,11.75
2023-11-07T08:03:07.582Z,19.20
2023-11-07T08:05:40.280Z,13.48
2023-11-07T08:08:11.664Z,14.48
2023-11-07T08:10:39.915Z,14.83
2023-11-07T08:13:08.487Z,14.23
2023-11-07T08:15:37.111Z,13.63
2023-11-07T08:18:07.704Z,14.35
2023-11-07T08:20:36.233Z,22.40
2023-11-07T08:23:05.674Z,18.17
2023-11-07T08:25:35.124Z,19.17
2023-11-07T08:28:07.619Z,13.98
2023-11-07T08:30:38.356Z,16.50
2023-11-07T08:33:06.280Z,13.48
2023-11-07T08:35:33.960Z,14.67
2023-11-07T08:38:01.625Z,18.20
2023-11-07T08:40:29.208Z,13.93
2023-11-07T08:42:58.174Z,17.23
2023-11-07T08:45:25.794Z,18.48
2023-11-07T08:47:55.362Z,16.50
2023-11-07T08:50:24.047Z,14.10
2023-11-07T08:52:52.477Z,14.18
2023-11-07T08:55:21.215Z,14.98
2023-11-07T08:57:50.481Z,13.68
2023-11-07T09:00:24.166Z,17.60
2023-11-07T09:02:53.421Z,13.25
2023-11-07T09:05:22.133Z,12.93
2023-11-07T09:07:49.922Z,10.88
2023-11-07T09:10:17.788Z,14.82
2023-11-07T09:12:45.368Z,14.13
2023-11-07T09:15:13.956Z,13.32
2023-11-07T09:17:44.500Z,12.88
2023-11-07T09:20:15.300Z,12.68
2023-11-07T09:22:43.492Z,12.88
2023-11-07T09:25:10.790Z,16.50
2023-11-07T09:27:38.858Z,13.82
2023-11-07T09:30:10.268Z,11.48
2023-11-07T09:32:38.300Z,13.98
2023-11-07T09:35:08.916Z,11.00
2023-11-07T09:37:40.693Z,11.37
2023-11-07T09:40:11.392Z,15.15
2023-11-07T09:42:39.862Z,15.15
2023-11-07T09:45:12.347Z,13.40
2023-11-07T09:47:40.957Z,14.02
2023-11-07T09:50:11.273Z,10.77
2023-11-07T09:52:40.548Z,14.30
2023-11-07T09:55:10.489Z,14.07
2023-11-07T09:57:43.556Z,16.60
2023-11-07T10:00:12.238Z,14.23
2023-11-07T10:02:41.504Z,14.23
2023-11-07T10:05:11.901Z,13.55
2023-11-07T10:07:40.071Z,11.30
2023-11-07T10:10:11.487Z,12.13
2023-11-07T10:12:43.910Z,15.82
2023-11-07T10:15:18.789Z,12.10
2023-11-07T10:17:58.606Z,12.50
2023-11-07T10:20:29.097Z,15.38
2023-11-07T10:22:56.689Z,9.82
2023-11-07T10:25:28.675Z,15.88
2023-11-07T10:27:56.555Z,13.77
2023-11-07T10:30:34.783Z,15.98
2023-11-07T10:33:02.575Z,12.95
2023-11-07T10:35:31.859Z,9.55
2023-11-07T10:37:59.494Z,12.23
2023-11-07T10:40:29.152Z,13.20
2023-11-07T10:42:56.753Z,12.35
2023-11-07T10:45:25.620Z,13.75
2023-11-07T10:47:54.121Z,11.63
2023-11-07T10:50:22.636Z,13.77
2023-11-07T10:52:51.639Z,12.07
2023-11-07T10:55:19.223Z,11.38
2023-11-07T10:57:55.060Z,10.38
2023-11-07T11:00:22.962Z,11.85
2023-11-07T11:02:54.601Z,8.68
2023-11-07T11:05:24.823Z,12.77
2023-11-07T11:07:54.982Z,12.80
2023-11-07T11:10:28.346Z,10.45
2023-11-07T11:12:57.390Z,12.65
2023-11-07T11:15:26.353Z,8.27
2023-11-07T11:17:59.517Z,10.57
2023-11-07T11:20:37.344Z,10.68
2023-11-07T11:23:17.167Z,11.55
2023-11-07T11:26:00.751Z,13.30
2023-11-07T11:28:41.971Z,10.02
2023-11-07T11:31:15.380Z,10.47
2023-11-07T11:33:44.382Z,11.27
2023-11-07T11:36:38.463Z,11.07
2023-11-07T11:39:39.833Z,11.32
2023-11-07T11:42:11.102Z,10.90
2023-11-07T11:44:39.806Z,10.53
2023-11-07T11:47:09.247Z,10.75
2023-11-07T11:49:38.108Z,10.57
2023-11-07T11:52:35.400Z,13.50
2023-11-07T11:55:08.502Z,8.15
2023-11-07T11:58:17.991Z,9.97
2023-11-07T12:00:51.531Z,9.57
2023-11-07T12:03:20.447Z,10.02
2023-11-07T12:06:08.173Z,8.57
2023-11-07T12:08:38.379Z,8.43
2023-11-07T12:11:07.057Z,9.37
2023-11-07T12:13:36.308Z,7.32
2023-11-07T12:16:16.068Z,7.80
2023-11-07T12:18:46.089Z,11.30
2023-11-07T12:21:22.467Z,6.97
2023-11-07T12:23:50.100Z,7.60
2023-11-07T12:26:17.681Z,8.95
2023-11-07T12:28:47.035Z,7.18
2023-11-07T12:31:23.291Z,8.15
2023-11-07T12:33:53.451Z,9.32
2023-11-07T12:36:21.177Z,7.07
2023-11-07T12:38:49.035Z,7.78
2023-11-07T12:41:16.652Z,7.22
2023-11-07T12:43:46.678Z,7.00
2023-11-07T12:46:17.971Z,7.47
2023-11-07T12:48:46.307Z,8.90
2023-11-07T12:51:22.188Z,6.93
2023-11-07T12:53:51.374Z,8.57
2023-11-07T12:56:20.384Z,5.72
2023-11-07T12:58:48.751Z,6.43
2023-11-07T13:01:17.897Z,7.97
2023-11-07T13:03:45.658Z,6.22
2023-11-07T13:06:20.622Z,8.10
2023-11-07T13:08:48.408Z,6.07
2023-11-07T13:11:17.403Z,6.72
2023-11-07T13:13:46.421Z,7.93
2023-11-07T13:16:14.312Z,7.65
2023-11-07T13:18:47.293Z,6.72
2023-11-07T13:21:15.435Z,6.70
2023-11-07T13:23:43.151Z,6.50
2023-11-07T13:26:10.931Z,9.23
2023-11-07T13:28:39.030Z,6.43
2023-11-07T13:31:07.278Z,6.00
2023-11-07T13:33:35.507Z,6.35
2023-11-07T13:36:05.871Z,6.88
2023-11-07T13:38:33.476Z,7.70
2023-11-07T13:41:01.571Z,5.93
2023-11-07T13:43:30.276Z,9.38
2023-11-07T13:45:59.724Z,8.57
2023-11-07T13:48:27.412Z,8.35
2023-11-07T13:50:55.016Z,6.40
2023-11-07T13:53:24.152Z,7.28
2023-11-07T13:55:52.260Z,7.65
2023-11-07T13:58:20.154Z,6.72
2023-11-07T14:00:48.400Z,6.57
2023-11-07T14:03:16.136Z,8.93
2023-11-07T14:05:43.777Z,6.53
2023-11-07T14:08:11.401Z,7.45
2023-11-07T14:10:40.376Z,6.57
2023-11-07T14:13:07.919Z,8.25
2023-11-07T14:15:36.818Z,9.07
2023-11-07T14:18:12.903Z,7.13
2023-11-07T14:20:48.605Z,5.32
2023-11-07T14:23:16.478Z,6.03
2023-11-07T14:25:45.742Z,8.02
2023-11-07T14:28:13.859Z,11.00
2023-11-07T14:30:44.692Z,9.15
2023-11-07T14:33:12.923Z,8.52
2023-11-07T14:35:41.075Z,8.35
2023-11-07T14:38:09.368Z,7.30
2023-11-07T14:40:37.729Z,6.30
2023-11-07T14:43:13.916Z,9.70
2023-11-07T14:45:44.347Z,7.15
2023-11-07T14:48:12.636Z,9.18
2023-11-07T14:50:40.933Z,10.18
2023-11-07T14:53:08.741Z,10.50
2023-11-07T14:55:37.137Z,6.90
2023-11-07T14:58:06.636Z,7.40
2023-11-07T15:00:41.316Z,7.13
2023-11-07T15:03:12.238Z,7.45
2023-11-07T15:05:42.982Z,9.67
2023-11-07T15:08:11.083Z,7.50
2023-11-07T15:10:39.467Z,7.55
2023-11-07T15:13:08.914Z,8.20
2023-11-07T15:15:38.107Z,6.20
2023-11-07T15:18:06.421Z,6.17
2023-11-07T15:20:34.431Z,5.45
2023-11-07T15:23:03.458Z,11.20
2023-11-07T15:25:34.228Z,6.68
2023-11-07T15:28:02.435Z,5.28
2023-11-07T15:30:30.206Z,13.10
2023-11-07T15:33:00.964Z,6.65
2023-11-07T15:35:30.308Z,7.13
2023-11-07T15:38:01.514Z,9.65
2023-11-07T15:40:29.252Z,7.50
2023-11-07T15:42:57.399Z,7.07
2023-11-07T15:45:26.976Z,7.80
2023-11-07T15:47:56.175Z,8.18
2023-11-07T15:50:26.023Z,7.50
2023-11-07T15:53:04.444Z,6.47
2023-11-07T15:55:36.095Z,6.23
2023-11-07T15:58:04.177Z,5.90
2023-11-07T16:00:32.548Z,5.88
2023-11-07T16:03:00.259Z,9.63
2023-11-07T16:05:33.766Z,7.97
2023-11-07T16:08:02.059Z,7.90
2023-11-07T16:10:30.497Z,7.20
2023-11-07T16:12:58.166Z,6.43
2023-11-07T16:15:27.189Z,9.23
2023-11-07T16:17:55.093Z,7.60
2023-11-07T16:20:23.805Z,5.60
2023-11-07T16:22:52.779Z,8.18
2023-11-07T16:25:20.686Z,6.85
2023-11-07T16:27:48.407Z,7.85
2023-11-07T16:30:18.517Z,7.95
2023-11-07T16:32:47.665Z,8.37
2023-11-07T16:35:15.468Z,9.30
2023-11-07T16:37:43.095Z,8.63
2023-11-07T16:40:13.854Z,6.07
2023-11-07T16:42:42.513Z,7.63
2023-11-07T16:45:13.743Z,8.43
2023-11-07T16:47:43.946Z,8.13
2023-11-07T16:50:13.224Z,8.00
2023-11-07T16:52:41.448Z,5.82
2023-11-07T16:55:10.896Z,8.10
2023-11-07T16:57:39.908Z,8.30
2023-11-07T17:00:11.411Z,9.55
2023-11-07T17:02:39.191Z,9.25
2023-11-07T17:05:08.321Z,8.98
2023-11-07T17:07:35.983Z,8.23
2023-11-07T17:10:03.927Z,10.73
2023-11-07T17:12:32.425Z,6.70
2023-11-07T17:15:01.385Z,9.30
2023-11-07T17:17:29.588Z,9.98
2023-11-07T17:19:57.201Z,10.00
2023-11-07T17:22:24.771Z,7.43
2023-11-07T17:24:52.799Z,7.68
2023-11-07T17:27:21.313Z,7.93
2023-11-07T17:29:48.895Z,7.82
2023-11-07T17:32:20.547Z,8.68
2023-11-07T17:34:48.164Z,9.67
2023-11-07T17:37:15.786Z,7.40
2023-11-07T17:39:43.414Z,6.65
2023-11-07T17:42:10.969Z,9.50
2023-11-07T17:44:39.171Z,7.45
2023-11-07T17:47:07.245Z,5.80
2023-11-07T17:49:36.521Z,7.95
2023-11-07T17:52:04.140Z,7.82
2023-11-07T17:54:31.744Z,5.97
2023-11-07T17:56:59.456Z,6.78
2023-11-07T17:59:27.302Z,6.33
2023-11-07T18:01:54.933Z,6.82
2023-11-07T18:04:22.654Z,7.22
2023-11-07T18:06:51.584Z,7.35
2023-11-07T18:09:19.604Z,5.55
2023-11-07T18:11:47.253Z,5.07
2023-11-07T18:14:15.392Z,5.65
2023-11-07T18:16:44.014Z,6.35
2023-11-07T18:19:11.812Z,7.75
2023-11-07T18:21:43.348Z,9.30
2023-11-07T18:24:12.844Z,6.47
2023-11-07T18:26:45.972Z,6.40
2023-11-07T18:29:14.042Z,7.03
2023-11-07T18:31:41.637Z,6.45
2023-11-07T18:34:20.123Z,6.55
2023-11-07T18:37:01.233Z,6.10
2023-11-07T18:39:31.926Z,5.57
2023-11-07T18:41:59.987Z,5.53
2023-11-07T18:44:31.567Z,5.70
2023-11-07T18:47:00.130Z,6.43
2023-11-07T18:49:28.663Z,7.50
2023-11-07T18:51:56.582Z,8.48
2023-11-07T18:54:24.251Z,6.85
2023-11-07T18:56:54.341Z,9.38
2023-11-07T18:59:31.729Z,6.82
2023-11-07T19:02:06.098Z,11.07
2023-11-07T19:04:34.193Z,10.43
2023-11-07T19:07:01.886Z,9.75
2023-11-07T19:09:29.593Z,13.75
2023-11-07T19:12:02.003Z,9.68
2023-11-07T19:14:30.030Z,8.47
2023-11-07T19:16:57.642Z,8.95
2023-11-07T19:19:25.396Z,10.48
2023-11-07T19:21:56.410Z,13.05
2023-11-07T19:24:24.166Z,7.60
2023-11-07T19:26:51.806Z,9.53
2023-11-07T19:29:20.718Z,13.23
2023-11-07T19:31:48.870Z,7.47
2023-11-07T19:34:18.270Z,7.50
2023-11-07T19:36:46.069Z,12.48
2023-11-07T19:39:13.743Z,8.40
2023-11-07T19:41:41.533Z,7.85
2023-11-07T19:44:09.100Z,8.95
2023-11-07T19:46:38.112Z,11.02
2023-11-07T19:49:07.042Z,11.52
2023-11-07T19:51:35.005Z,9.43
2023-11-07T19:54:02.713Z,8.32
2023-11-07T19:56:30.308Z,9.52
2023-11-07T19:59:00.644Z,8.25
2023-11-07T20:01:28.808Z,9.50
2023-11-07T20:03:58.181Z,12.40
2023-11-07T20:06:25.962Z,8.48
2023-11-07T20:08:54.513Z,11.75
2023-11-07T20:11:22.423Z,10.30
2023-11-07T20:13:49.272Z,9.75
2023-11-07T20:16:18.964Z,9.47
2023-11-07T20:18:47.154Z,9.88
2023-11-07T20:21:17.324Z,12.65
2023-11-07T20:23:45.009Z,12.93
2023-11-07T20:26:12.553Z,9.18
2023-11-07T20:28:40.104Z,11.97
2023-11-07T20:31:08.579Z,9.73
2023-11-07T20:33:42.200Z,9.80
2023-11-07T20:36:18.462Z,7.90
2023-11-07T20:38:46.440Z,10.48
2023-11-07T20:41:16.584Z,11.10
2023-11-07T20:43:44.348Z,9.45
2023-11-07T20:46:27.067Z,12.27
2023-11-07T20:49:02.583Z,9.75
2023-11-07T20:51:32.712Z,10.38
2023-11-07T20:54:00.486Z,9.67
2023-11-07T20:56:30.178Z,8.50
2023-11-07T20:58:58.776Z,10.45
2023-11-07T21:01:27.413Z,9.65
2023-11-07T21:03:56.573Z,12.65
2023-11-07T21:06:25.660Z,12.87
2023-11-07T21:08:55.281Z,22.92
2023-11-07T21:11:23.068Z,10.18
2023-11-07T21:13:51.854Z,13.05
2023-11-07T21:16:19.909Z,12.25
2023-11-07T21:18:48.490Z,8.90
2023-11-07T21:21:16.831Z,10.60
2023-11-07T21:23:44.803Z,9.60
2023-11-07T21:26:14.461Z,10.73
2023-11-07T21:28:42.095Z,9.68
2023-11-07T21:31:09.765Z,12.30
2023-11-07T21:33:37.435Z,11.93
2023-11-07T21:36:06.576Z,10.13
2023-11-07T21:38:34.643Z,10.88
2023-11-07T21:41:02.252Z,12.15
2023-11-07T21:43:31.192Z,11.57
2023-11-07T21:46:01.281Z,10.80
2023-11-07T21:48:29.252Z,10.98
2023-11-07T21:50:57.287Z,10.35
2023-11-07T21:53:25.524Z,9.88
2023-11-07T21:55:54.453Z,10.13
2023-11-07T21:58:22.060Z,9.18
2023-11-07T22:00:51.262Z,11.07
2023-11-07T22:03:19.008Z,10.73
2023-11-07T22:05:46.573Z,13.73
2023-11-07T22:08:14.176Z,10.93
2023-11-07T22:10:41.785Z,10.82
2023-11-07T22:13:09.366Z,13.13
2023-11-07T22:15:37.017Z,9.45
2023-11-07T22:18:06.349Z,9.30
2023-11-07T22:20:34.145Z,11.23
2023-11-07T22:23:03.696Z,13.32
2023-11-07T22:25:31.349Z,8.07
2023-11-07T22:27:59.253Z,10.43
2023-11-07T22:30:26.952Z,8.60
2023-11-07T22:32:54.640Z,10.63
2023-11-07T22:35:23.764Z,10.45
2023-11-07T22:37:51.449Z,10.40
2023-11-07T22:40:19.049Z,9.20
2023-11-07T22:42:46.658Z,13.02
2023-11-07T22:45:15.287Z,8.73
2023-11-07T22:47:44.382Z,10.60
2023-11-07T22:50:12.283Z,8.20
2023-11-07T22:52:42.728Z,12.32
2023-11-07T22:55:11.864Z,8.93
2023-11-07T22:57:39.576Z,13.90
2023-11-07T23:00:11.279Z,9.27
2023-11-07T23:02:40.489Z,10.77
2023-11-07T23:05:08.774Z,11.27
2023-11-07T23:07:36.479Z,12.02
2023-11-07T23:10:06.089Z,10.60
2023-11-07T23:12:33.697Z,10.10
2023-11-07T23:15:01.502Z,11.45
2023-11-07T23:17:29.103Z,11.27
2023-11-07T23:19:56.703Z,9.23
2023-11-07T23:22:24.321Z,10.43
2023-11-07T23:24:53.531Z,9.35
2023-11-07T23:27:22.538Z,12.25
2023-11-07T23:29:55.373Z,16.30
2023-11-07T23:32:22.982Z,12.45
2023-11-07T23:34:50.706Z,8.97
2023-11-07T23:37:21.627Z,12.07
2023-11-07T23:39:49.274Z,10.20
2023-11-07T23:42:18.033Z,9.65
2023-11-07T23:44:47.306Z,11.40
2023-11-07T23:47:15.154Z,10.67
2023-11-07T23:49:42.761Z,12.25
2023-11-07T23:52:11.889Z,10.93
2023-11-07T23:54:39.575Z,12.90
2023-11-07T23:57:07.271Z,11.93
2023-11-07T23:59:35.567Z,12.43
